Forside
METAR-TAF:

METAR-TAF

Lufthavne :

Sarnia, Ontario, Canada

Breddekreds: 43-00N, længdekreds: 082-19W, højde: 181 m

Aktuelle vejr

Denne rapport blev lavet for 20 minutter siden, kl. 18:00 UTC
Vind 15 kt fra syd
Temperatur 8°C
Fugtighed 46%
Tryk 1014 hPa
Sigt: 14.5 km
skyfri

METAR: CYZR 231800Z AUTO 19015KT 9SM CLR 08/M03 A2993 RMK SLP140

Tid: 13:20 (18:20 UTC)

Vejrudsigter

Denne rapport blev lavet for 4 timer og 41 minutter siden, kl. 13:39 UTC
Foreløbig gælder fra 23 på 14 UTC til 24 på 02 UTC
Vind 10 kt fra sydsydvest
Sigt: 10 km
skyfri
ændring
fra 23 på 14 UTC til 23 på 16 UTC
Vind 12 kt fra sydsydvest med vindstød på up til 22 kt
ændring
fra 24 på 00 UTC til 24 på 02 UTC
Vind 10 kt fra sydvest

TAF: CYZR 231339Z 2314/2402 20010KT P6SM SKC BECMG 2314/2316 20012G22KT BECMG 2400/2402 22010KT RMK FCST BASED ON AUTO OBS. NXT FCST BY 232000Z

Vejrobservationer og prognoser fra mere end 4000 lufthavne (METAR og TAF).

De gule og røde prikker repræsenterer de meteorologiske stationer.

Flyt musen over at se navnet på stationen.

Så klik over at se vejr observationer og prognoser.

At skifte det kort: Klik på de grønne knapper med et sort kors for at zoome ind; på den grønne knap med en bindestreg for at zoome ud; eller på de grønne pile for tilstødende kort.


METAR-TAF: